createdAt,value
2022-08-14T00:02:01.279Z,99.90
2022-08-14T00:04:35.187Z,30.40
2022-08-14T00:07:06.154Z,1.00
2022-08-14T00:09:56.243Z,1.00
2022-08-14T00:12:33.017Z,1.00
2022-08-14T00:15:03.590Z,1.00
2022-08-14T00:17:38.171Z,1.00
2022-08-14T00:20:24.130Z,1.00
2022-08-14T00:23:00.349Z,99.90
2022-08-14T00:25:43.676Z,99.90
2022-08-14T00:28:32.584Z,99.90
2022-08-14T00:31:03.158Z,99.90
2022-08-14T00:33:52.067Z,99.90
2022-08-14T00:36:37.099Z,99.90
2022-08-14T00:39:14.052Z,99.90
2022-08-14T00:41:42.655Z,99.90
2022-08-14T00:44:12.216Z,99.90
2022-08-14T00:46:41.065Z,1.00
2022-08-14T00:49:14.774Z,1.00
2022-08-14T00:51:44.146Z,1.00
2022-08-14T00:54:21.470Z,1.00
2022-08-14T00:56:55.687Z,1.00
2022-08-14T00:59:27.462Z,19.60
2022-08-14T01:01:59.011Z,99.90
2022-08-14T01:04:38.064Z,99.90
2022-08-14T01:07:20.507Z,99.90
2022-08-14T01:09:50.498Z,99.90
2022-08-14T01:12:27.040Z,99.90
2022-08-14T01:15:02.153Z,99.90
2022-08-14T01:17:49.717Z,1.00
2022-08-14T01:20:40.099Z,72.90
2022-08-14T01:23:16.326Z,99.90
2022-08-14T01:25:48.514Z,1.00
2022-08-14T01:28:34.311Z,99.90
2022-08-14T01:31:12.228Z,99.90
2022-08-14T01:34:00.263Z,1.00
2022-08-14T01:36:37.971Z,99.90
2022-08-14T01:39:13.019Z,17.20
2022-08-14T01:41:43.249Z,99.90
2022-08-14T01:44:33.476Z,99.90
2022-08-14T01:47:09.608Z,99.90
2022-08-14T01:49:46.096Z,99.90
2022-08-14T01:52:34.278Z,99.90
2022-08-14T01:55:06.690Z,99.90
2022-08-14T01:58:00.537Z,99.90
2022-08-14T02:00:27.571Z,99.90
2022-08-14T02:02:56.975Z,1.00
2022-08-14T02:05:29.413Z,1.00
2022-08-14T02:08:09.713Z,1.00
2022-08-14T02:10:46.262Z,9.40
2022-08-14T02:13:16.665Z,21.50
2022-08-14T02:15:48.629Z,18.60
2022-08-14T02:18:18.635Z,29.90
2022-08-14T02:20:48.667Z,10.10
2022-08-14T02:23:27.793Z,45.70
2022-08-14T02:26:24.732Z,1.00
2022-08-14T02:29:00.170Z,1.00
2022-08-14T02:31:42.486Z,1.00
2022-08-14T02:34:21.976Z,1.00
2022-08-14T02:37:04.110Z,25.30
2022-08-14T02:39:36.280Z,27.40
2022-08-14T02:42:12.813Z,38.40
2022-08-14T02:44:43.172Z,29.20
2022-08-14T02:47:20.836Z,1.00
2022-08-14T02:49:56.655Z,1.00
2022-08-14T02:52:56.715Z,1.00
2022-08-14T02:55:15.609Z,1.00
2022-08-14T02:58:03.047Z,35.30
2022-08-14T03:00:39.746Z,67.10
2022-08-14T03:03:08.937Z,86.30
2022-08-14T03:05:41.358Z,82.60
2022-08-14T03:08:15.405Z,60.30
2022-08-14T03:10:49.007Z,59.70
2022-08-14T03:13:21.452Z,62.10
2022-08-14T03:15:56.141Z,90.30
2022-08-14T03:18:30.579Z,87.90
2022-08-14T03:21:00.039Z,97.50
2022-08-14T03:23:28.278Z,87.70
2022-08-14T03:25:57.508Z,88.50
2022-08-14T03:28:33.201Z,95.80
2022-08-14T03:31:02.182Z,91.40
2022-08-14T03:33:38.084Z,93.20
2022-08-14T03:37:38.011Z,99.90
2022-08-14T03:39:13.606Z,99.90
2022-08-14T03:41:44.519Z,99.90
2022-08-14T03:45:25.324Z,99.90
2022-08-14T03:47:03.258Z,99.90
2022-08-14T03:49:31.553Z,99.90
2022-08-14T03:52:07.600Z,99.90
2022-08-14T03:54:52.284Z,99.90
2022-08-14T03:57:22.690Z,99.90
2022-08-14T03:59:53.249Z,99.90
2022-08-14T04:02:32.840Z,99.90
2022-08-14T04:05:12.039Z,99.90
2022-08-14T04:07:49.749Z,99.90
2022-08-14T04:10:32.032Z,99.90
2022-08-14T04:13:03.232Z,99.90
2022-08-14T04:15:52.700Z,99.90
2022-08-14T04:18:21.971Z,99.90
2022-08-14T04:20:54.457Z,99.90
2022-08-14T04:23:32.814Z,99.90
2022-08-14T04:26:03.194Z,99.90
2022-08-14T04:29:02.143Z,99.90
2022-08-14T04:32:56.319Z,99.90
2022-08-14T04:34:17.069Z,99.90
2022-08-14T04:36:59.547Z,99.90
2022-08-14T04:39:46.491Z,99.90
2022-08-14T04:42:32.831Z,99.90
2022-08-14T04:45:01.481Z,99.90
2022-08-14T04:47:53.706Z,99.90
2022-08-14T04:50:27.134Z,99.90
2022-08-14T04:53:06.097Z,99.90
2022-08-14T04:55:34.473Z,99.90
2022-08-14T04:58:04.590Z,99.90
2022-08-14T05:00:34.843Z,99.90
2022-08-14T05:03:07.451Z,99.30
2022-08-14T05:05:35.917Z,97.00
2022-08-14T05:08:09.653Z,96.10
2022-08-14T05:10:42.256Z,83.10
2022-08-14T05:13:15.751Z,29.70
2022-08-14T05:15:44.806Z,1.00
2022-08-14T05:19:16.859Z,1.00
2022-08-14T05:21:55.988Z,99.90
2022-08-14T05:23:57.738Z,99.90
2022-08-14T05:26:27.263Z,99.90
2022-08-14T05:28:55.383Z,17.10
2022-08-14T05:31:24.139Z,1.00
2022-08-14T05:34:09.571Z,1.00
2022-08-14T05:36:37.759Z,58.30
2022-08-14T05:39:08.273Z,20.20
2022-08-14T05:41:52.481Z,99.90
2022-08-14T05:44:21.607Z,99.90
2022-08-14T05:46:49.934Z,99.90
2022-08-14T05:49:19.354Z,1.00
2022-08-14T05:51:48.356Z,1.00
2022-08-14T05:54:26.735Z,99.90
2022-08-14T05:56:55.612Z,99.90
2022-08-14T05:59:30.090Z,36.80
2022-08-14T06:02:05.969Z,1.00
2022-08-14T06:04:35.488Z,1.00
2022-08-14T06:07:04.296Z,9.60
2022-08-14T06:09:36.105Z,99.90
2022-08-14T06:12:09.985Z,99.90
2022-08-14T06:14:38.808Z,99.90
2022-08-14T06:17:06.962Z,1.00
2022-08-14T06:19:36.416Z,1.00
2022-08-14T06:22:04.886Z,99.90
2022-08-14T06:24:34.767Z,99.90
2022-08-14T06:27:06.404Z,1.00
2022-08-14T06:29:38.921Z,1.00
2022-08-14T06:32:37.474Z,1.00
2022-08-14T06:35:02.497Z,1.00
2022-08-14T06:37:41.546Z,1.00
2022-08-14T06:40:25.488Z,1.00
2022-08-14T06:42:57.077Z,99.90
2022-08-14T06:45:29.399Z,99.90
2022-08-14T06:48:01.264Z,99.90
2022-08-14T06:50:33.720Z,99.90
2022-08-14T06:53:02.046Z,99.90
2022-08-14T06:55:30.252Z,99.90
2022-08-14T06:57:58.846Z,99.90
2022-08-14T07:00:31.059Z,99.90
2022-08-14T07:03:19.405Z,99.90
2022-08-14T07:05:55.201Z,99.90
2022-08-14T07:08:31.151Z,99.90
2022-08-14T07:11:03.945Z,99.90
2022-08-14T07:13:32.559Z,99.90
2022-08-14T07:16:05.645Z,91.00
2022-08-14T07:18:35.935Z,1.00
2022-08-14T07:21:07.406Z,99.90
2022-08-14T07:23:40.144Z,99.90
2022-08-14T07:26:13.515Z,99.90
2022-08-14T07:28:43.355Z,99.90
2022-08-14T07:31:13.689Z,99.90
2022-08-14T07:33:49.963Z,3.30
2022-08-14T07:36:27.059Z,1.00
2022-08-14T07:38:58.948Z,1.00
2022-08-14T07:41:33.650Z,99.90
2022-08-14T07:44:28.932Z,1.00
2022-08-14T07:46:50.967Z,1.00
2022-08-14T07:49:20.368Z,99.90
2022-08-14T07:51:50.733Z,99.90
2022-08-14T07:54:23.208Z,99.90
2022-08-14T07:57:29.167Z,99.90
2022-08-14T07:59:57.685Z,99.90
2022-08-14T08:02:32.644Z,95.60
2022-08-14T08:05:02.536Z,40.50
2022-08-14T08:07:33.023Z,29.20
2022-08-14T08:10:46.911Z,10.30
2022-08-14T08:13:16.068Z,58.10
2022-08-14T08:15:46.457Z,99.90
2022-08-14T08:18:27.652Z,99.90
2022-08-14T08:20:59.239Z,99.90
2022-08-14T08:23:39.996Z,34.80
2022-08-14T08:26:09.166Z,1.00
2022-08-14T08:28:37.287Z,1.00
2022-08-14T08:31:08.121Z,99.90
2022-08-14T08:33:37.770Z,1.00
2022-08-14T08:36:12.869Z,99.90
2022-08-14T08:39:16.597Z,99.90
2022-08-14T08:41:43.378Z,99.90
2022-08-14T08:44:17.114Z,90.60
2022-08-14T08:47:01.580Z,1.00
2022-08-14T08:49:48.198Z,1.00
2022-08-14T08:52:25.520Z,99.90
2022-08-14T08:55:01.191Z,99.90
2022-08-14T08:57:37.492Z,1.00
2022-08-14T09:00:24.644Z,99.90
2022-08-14T09:02:57.423Z,99.90
2022-08-14T09:05:26.646Z,99.90
2022-08-14T09:07:56.698Z,99.90
2022-08-14T09:10:27.182Z,99.90
2022-08-14T09:12:57.370Z,56.90
2022-08-14T09:15:25.652Z,1.00
2022-08-14T09:18:04.693Z,99.90
2022-08-14T09:20:33.507Z,99.90
2022-08-14T09:23:06.047Z,99.90
2022-08-14T09:25:59.864Z,1.00
2022-08-14T09:28:28.166Z,22.00
2022-08-14T09:30:58.020Z,1.00
2022-08-14T09:33:56.144Z,99.90
2022-08-14T09:36:45.402Z,79.10
2022-08-14T09:39:24.911Z,99.90
2022-08-14T09:42:33.225Z,99.90
2022-08-14T09:45:16.570Z,8.20
2022-08-14T09:47:49.148Z,99.90
2022-08-14T09:50:27.784Z,99.90
2022-08-14T09:53:03.941Z,1.00
2022-08-14T09:55:42.621Z,1.00
2022-08-14T09:58:19.595Z,1.00
2022-08-14T10:00:50.483Z,1.00
2022-08-14T10:03:33.959Z,1.00
2022-08-14T10:06:09.827Z,1.00
2022-08-14T10:08:51.027Z,99.90
2022-08-14T10:11:23.394Z,99.90
2022-08-14T10:13:55.960Z,99.90
2022-08-14T10:16:33.179Z,99.90
2022-08-14T10:19:09.648Z,1.00
2022-08-14T10:21:58.425Z,52.30
2022-08-14T10:24:36.159Z,57.70
2022-08-14T10:27:06.448Z,56.90
2022-08-14T10:29:38.384Z,58.60
2022-08-14T10:32:18.212Z,59.80
2022-08-14T10:35:09.321Z,56.80
2022-08-14T10:37:46.729Z,12.90
2022-08-14T10:40:43.475Z,99.90
2022-08-14T10:43:04.219Z,1.00
2022-08-14T10:45:42.099Z,1.00
2022-08-14T10:48:34.616Z,99.90
2022-08-14T10:51:08.451Z,99.90
2022-08-14T10:53:40.277Z,99.90
2022-08-14T10:56:22.104Z,99.90
2022-08-14T10:59:03.418Z,99.90
2022-08-14T11:01:38.474Z,99.90
2022-08-14T11:04:28.533Z,99.90
2022-08-14T11:06:59.824Z,99.90
2022-08-14T11:09:31.389Z,99.90
2022-08-14T11:12:33.705Z,99.90
2022-08-14T11:14:59.359Z,99.90
2022-08-14T11:17:32.932Z,99.90
2022-08-14T11:20:03.452Z,99.90
2022-08-14T11:22:55.766Z,99.90
2022-08-14T11:25:23.640Z,99.90
2022-08-14T11:27:54.007Z,99.90
2022-08-14T11:30:50.054Z,99.90
2022-08-14T11:33:16.250Z,99.90
2022-08-14T11:35:49.687Z,99.90
2022-08-14T11:38:21.448Z,99.90
2022-08-14T11:40:49.831Z,99.90
2022-08-14T11:43:22.625Z,99.90
2022-08-14T11:45:58.065Z,99.90
2022-08-14T11:49:02.165Z,99.90
2022-08-14T11:51:30.369Z,99.90
2022-08-14T11:54:03.915Z,99.90
2022-08-14T11:56:37.045Z,99.90
2022-08-14T11:59:07.163Z,1.00
2022-08-14T12:01:41.454Z,1.00
2022-08-14T12:04:31.650Z,1.00
2022-08-14T12:07:01.676Z,1.00
2022-08-14T12:09:32.037Z,3.70
2022-08-14T12:12:00.497Z,51.30
2022-08-14T12:14:35.387Z,13.90
2022-08-14T12:17:09.448Z,1.00
2022-08-14T12:19:51.143Z,1.00
2022-08-14T12:22:29.936Z,1.00
2022-08-14T12:24:58.873Z,1.00
2022-08-14T12:27:41.302Z,1.00
2022-08-14T12:30:11.859Z,6.60
2022-08-14T12:32:41.752Z,1.00
2022-08-14T12:35:12.095Z,1.00
2022-08-14T12:37:40.892Z,1.00
2022-08-14T12:40:13.843Z,1.00
2022-08-14T12:42:52.634Z,1.00
2022-08-14T12:45:33.196Z,1.00
2022-08-14T12:48:21.269Z,1.00
2022-08-14T12:50:53.236Z,1.00
2022-08-14T12:53:22.356Z,1.00
2022-08-14T12:56:22.673Z,4.00
2022-08-14T12:58:51.768Z,6.20
2022-08-14T13:01:22.894Z,22.20
2022-08-14T13:03:53.182Z,10.30
2022-08-14T13:06:28.852Z,24.40
2022-08-14T13:08:59.964Z,21.10
2022-08-14T13:11:37.303Z,19.00
2022-08-14T13:14:17.529Z,1.00
2022-08-14T13:16:50.298Z,1.30
2022-08-14T13:19:20.056Z,1.00
2022-08-14T13:21:58.620Z,1.00
2022-08-14T13:24:33.880Z,1.00
2022-08-14T13:27:04.829Z,1.00
2022-08-14T13:29:46.542Z,1.00
2022-08-14T13:32:16.222Z,1.00
2022-08-14T13:34:46.055Z,1.00
2022-08-14T13:37:17.325Z,1.00
2022-08-14T13:39:56.381Z,1.00
2022-08-14T13:42:30.449Z,1.00
2022-08-14T13:45:00.357Z,1.00
2022-08-14T13:47:33.062Z,1.00
2022-08-14T13:50:04.560Z,1.00
2022-08-14T13:52:51.680Z,1.00
2022-08-14T13:55:30.535Z,1.00
2022-08-14T13:58:03.532Z,15.60
2022-08-14T14:00:35.954Z,18.60
2022-08-14T14:03:07.329Z,1.00
2022-08-14T14:05:53.364Z,1.00
2022-08-14T14:08:43.461Z,1.00
2022-08-14T14:11:16.022Z,15.10
2022-08-14T14:13:45.954Z,1.00
2022-08-14T14:16:26.174Z,1.00
2022-08-14T14:19:06.094Z,1.00
2022-08-14T14:21:38.166Z,1.00
2022-08-14T14:24:15.034Z,1.00
2022-08-14T14:26:47.222Z,1.00
2022-08-14T14:29:16.893Z,1.00
2022-08-14T14:31:49.399Z,1.00
2022-08-14T14:34:29.741Z,1.00
2022-08-14T14:37:02.727Z,1.00
2022-08-14T14:39:35.310Z,1.00
2022-08-14T14:42:32.468Z,2.10
2022-08-14T14:45:07.675Z,32.10
2022-08-14T14:47:38.932Z,1.00
2022-08-14T14:50:17.171Z,1.00
2022-08-14T14:52:45.588Z,1.00
2022-08-14T14:55:18.412Z,1.00
2022-08-14T14:57:52.099Z,1.00
2022-08-14T15:00:23.013Z,1.00
2022-08-14T15:02:53.335Z,1.00
2022-08-14T15:05:28.389Z,1.00
2022-08-14T15:07:57.728Z,1.00
2022-08-14T15:10:34.262Z,1.00
2022-08-14T15:13:07.194Z,1.00
2022-08-14T15:15:37.520Z,1.00
2022-08-14T15:18:36.398Z,1.00
2022-08-14T15:21:19.046Z,1.00
2022-08-14T15:23:52.486Z,1.00
2022-08-14T15:26:24.168Z,1.00
2022-08-14T15:29:03.245Z,1.00
2022-08-14T15:31:34.878Z,1.00
2022-08-14T15:34:45.552Z,1.00
2022-08-14T15:37:04.866Z,1.00
2022-08-14T15:39:35.708Z,1.00
2022-08-14T15:42:15.998Z,99.90
2022-08-14T15:44:56.932Z,99.90
2022-08-14T15:47:28.386Z,99.90
2022-08-14T15:49:59.058Z,99.90
2022-08-14T15:52:32.852Z,99.90
2022-08-14T15:55:04.612Z,99.90
2022-08-14T15:58:01.405Z,1.00
2022-08-14T16:00:49.831Z,1.00
2022-08-14T16:03:26.978Z,1.00
2022-08-14T16:06:02.719Z,1.00
2022-08-14T16:08:31.058Z,1.00
2022-08-14T16:11:00.488Z,1.00
2022-08-14T16:13:39.814Z,1.00
2022-08-14T16:16:47.517Z,1.00
2022-08-14T16:19:06.181Z,1.00
2022-08-14T16:21:37.531Z,1.00
2022-08-14T16:24:06.591Z,1.00
2022-08-14T16:26:35.533Z,8.50
2022-08-14T16:29:09.278Z,1.00
2022-08-14T16:31:38.023Z,35.50
2022-08-14T16:34:44.027Z,28.00
2022-08-14T16:36:57.154Z,34.60
2022-08-14T16:39:26.145Z,19.90
2022-08-14T16:42:00.275Z,21.30
2022-08-14T16:44:41.214Z,15.80
2022-08-14T16:47:13.910Z,1.20
2022-08-14T16:50:02.815Z,1.00
2022-08-14T16:52:44.747Z,1.00
2022-08-14T16:55:17.789Z,3.70
2022-08-14T16:57:51.849Z,14.60
2022-08-14T17:00:33.014Z,11.20
2022-08-14T17:03:12.581Z,7.00
2022-08-14T17:05:43.481Z,10.50
2022-08-14T17:08:33.428Z,6.60
2022-08-14T17:11:10.760Z,24.10
2022-08-14T17:13:58.639Z,18.90
2022-08-14T17:16:35.870Z,20.80
2022-08-14T17:19:13.445Z,17.90
2022-08-14T17:21:46.872Z,12.60
2022-08-14T17:24:57.381Z,14.40
2022-08-14T17:27:06.485Z,15.00
2022-08-14T17:29:44.701Z,12.00
2022-08-14T17:32:55.518Z,1.00
2022-08-14T17:35:26.947Z,3.30
2022-08-14T17:38:38.383Z,1.00
2022-08-14T17:44:20.142Z,1.00
2022-08-14T17:46:57.019Z,1.00
2022-08-14T17:49:32.051Z,1.00
2022-08-14T17:52:03.776Z,1.00
2022-08-14T17:54:39.777Z,1.00
2022-08-14T17:57:14.730Z,1.00
2022-08-14T17:59:44.183Z,1.00
2022-08-14T18:02:16.595Z,1.00
2022-08-14T18:04:47.333Z,1.00
2022-08-14T18:08:00.240Z,1.00
2022-08-14T18:10:51.847Z,1.00
2022-08-14T18:13:01.690Z,1.00
2022-08-14T18:15:36.892Z,1.00
2022-08-14T18:18:08.876Z,1.00
2022-08-14T18:21:24.362Z,1.00
2022-08-14T18:23:28.780Z,1.00
2022-08-14T18:25:59.306Z,99.90
2022-08-14T18:28:47.901Z,99.90
2022-08-14T18:31:43.612Z,99.90
2022-08-14T18:34:32.087Z,99.90
2022-08-14T18:37:16.818Z,99.90
2022-08-14T18:40:02.441Z,99.90
2022-08-14T18:42:44.265Z,99.90
2022-08-14T18:45:15.546Z,99.90
2022-08-14T18:50:49.056Z,99.90
2022-08-14T18:53:24.851Z,99.90
2022-08-14T18:56:00.005Z,1.00
2022-08-14T18:58:48.446Z,99.90
2022-08-14T19:01:25.217Z,99.90
2022-08-14T19:03:57.520Z,91.20
2022-08-14T19:06:55.942Z,99.90
2022-08-14T19:09:57.757Z,99.90
2022-08-14T19:13:05.274Z,96.60
2022-08-14T19:15:42.928Z,1.00
2022-08-14T19:18:28.176Z,99.90
2022-08-14T19:21:00.530Z,99.90
2022-08-14T19:23:40.731Z,1.00
2022-08-14T19:26:35.323Z,99.90
2022-08-14T19:29:38.035Z,99.90
2022-08-14T19:32:39.037Z,1.00
2022-08-14T19:35:55.125Z,1.00
2022-08-14T19:38:53.340Z,99.90
2022-08-14T19:41:29.863Z,99.90
2022-08-14T19:44:10.622Z,33.40
2022-08-14T19:47:00.985Z,1.00
2022-08-14T19:50:25.179Z,99.90
2022-08-14T19:52:23.752Z,1.00
2022-08-14T19:54:52.858Z,99.90
2022-08-14T19:57:24.820Z,99.90
2022-08-14T20:00:04.701Z,99.90
2022-08-14T20:02:42.139Z,99.90
2022-08-14T20:05:12.350Z,99.90
2022-08-14T20:08:00.308Z,1.00
2022-08-14T20:11:08.564Z,99.90
2022-08-14T20:13:32.304Z,1.00
2022-08-14T20:16:12.150Z,1.00
2022-08-14T20:18:51.782Z,99.90
2022-08-14T20:21:21.400Z,99.90
2022-08-14T20:23:50.434Z,99.90
2022-08-14T20:26:30.998Z,99.90
2022-08-14T20:29:04.689Z,99.90
2022-08-14T20:31:37.064Z,47.20
2022-08-14T20:34:24.103Z,90.80
2022-08-14T20:37:02.916Z,99.90
2022-08-14T20:39:34.356Z,91.00
2022-08-14T20:42:32.091Z,99.90
2022-08-14T20:45:21.580Z,99.90
2022-08-14T20:48:01.082Z,99.90
2022-08-14T20:50:31.337Z,99.90
2022-08-14T20:53:00.951Z,1.00
2022-08-14T20:55:41.798Z,1.00
2022-08-14T20:58:41.773Z,1.00
2022-08-14T21:01:33.699Z,8.20
2022-08-14T21:04:05.101Z,93.60
2022-08-14T21:07:23.985Z,24.00
2022-08-14T21:09:43.869Z,99.90
2022-08-14T21:12:35.179Z,99.90
2022-08-14T21:15:10.152Z,99.90
2022-08-14T21:17:41.555Z,99.90
2022-08-14T21:20:26.507Z,99.90
2022-08-14T21:23:00.365Z,99.90
2022-08-14T21:25:31.775Z,99.90
2022-08-14T21:28:04.191Z,99.90
2022-08-14T21:30:46.848Z,99.90
2022-08-14T21:33:21.699Z,99.90
2022-08-14T21:35:55.510Z,99.90
2022-08-14T21:38:33.705Z,99.90
2022-08-14T21:41:43.018Z,99.90
2022-08-14T21:44:17.164Z,99.90
2022-08-14T21:46:50.619Z,99.90
2022-08-14T21:49:22.778Z,99.90
2022-08-14T21:51:58.897Z,99.90
2022-08-14T21:54:49.511Z,84.10
2022-08-14T21:57:53.636Z,99.90
2022-08-14T22:00:34.578Z,99.90
2022-08-14T22:03:02.642Z,99.90
2022-08-14T22:05:32.240Z,99.90
2022-08-14T22:08:02.461Z,99.90
2022-08-14T22:10:32.570Z,97.50
2022-08-14T22:13:01.769Z,1.00
2022-08-14T22:15:31.579Z,99.90
2022-08-14T22:18:00.350Z,1.00
2022-08-14T22:20:33.531Z,83.00
2022-08-14T22:23:04.477Z,99.90
2022-08-14T22:25:40.964Z,95.10
2022-08-14T22:28:12.989Z,99.90
2022-08-14T22:30:43.182Z,88.00
2022-08-14T22:33:13.567Z,54.50
2022-08-14T22:35:44.476Z,12.80
2022-08-14T22:38:35.781Z,72.80
2022-08-14T22:41:26.860Z,99.90
2022-08-14T22:43:51.042Z,99.90
2022-08-14T22:46:20.768Z,99.90
2022-08-14T22:48:49.726Z,99.90
2022-08-14T22:51:21.809Z,99.90
2022-08-14T22:53:53.080Z,99.90
2022-08-14T22:56:22.397Z,1.00
2022-08-14T22:58:59.404Z,1.00
2022-08-14T23:01:55.753Z,1.00
2022-08-14T23:04:35.545Z,1.00
2022-08-14T23:07:22.275Z,1.00
2022-08-14T23:09:56.555Z,99.90
2022-08-14T23:12:31.794Z,1.00
2022-08-14T23:15:03.929Z,1.00
2022-08-14T23:17:40.468Z,1.00
2022-08-14T23:20:18.549Z,1.00
2022-08-14T23:22:52.327Z,1.00
2022-08-14T23:25:45.821Z,99.90
2022-08-14T23:28:34.641Z,99.90
2022-08-14T23:31:02.539Z,99.90
2022-08-14T23:33:36.022Z,99.90
2022-08-14T23:36:28.820Z,99.90
2022-08-14T23:39:10.224Z,1.00
2022-08-14T23:41:46.283Z,1.00
2022-08-14T23:44:23.594Z,1.00
2022-08-14T23:46:56.936Z,9.10
2022-08-14T23:49:56.806Z,1.00
2022-08-14T23:52:56.162Z,1.00
2022-08-14T23:55:11.161Z,1.00
2022-08-14T23:57:43.556Z,28.90
